createdAt,value
2024-02-11T00:01:55.657Z,97803.19
2024-02-11T00:04:57.252Z,97802.94
2024-02-11T00:07:58.750Z,97804.44
2024-02-11T00:11:00.478Z,97809.47
2024-02-11T00:14:02.060Z,97812.00
2024-02-11T00:17:03.777Z,97806.75
2024-02-11T00:20:15.139Z,97807.59
2024-02-11T00:23:16.768Z,97803.16
2024-02-11T00:26:18.401Z,97810.94
2024-02-11T00:29:20.334Z,97810.09
2024-02-11T00:32:21.884Z,97817.88
2024-02-11T00:35:27.305Z,97812.00
2024-02-11T00:38:28.846Z,97814.75
2024-02-11T00:41:30.392Z,97819.06
2024-02-11T00:44:32.496Z,97828.34
2024-02-11T00:47:35.500Z,97820.97
2024-02-11T00:50:37.535Z,97837.25
2024-02-11T00:53:39.188Z,97834.97
2024-02-11T00:56:42.423Z,97834.97
2024-02-11T00:59:44.069Z,97847.19
2024-02-11T01:02:45.557Z,97846.00
2024-02-11T01:05:47.117Z,97848.38
2024-02-11T01:08:50.645Z,97848.13
2024-02-11T01:11:52.488Z,97856.66
2024-02-11T01:14:56.867Z,97851.50
2024-02-11T01:17:58.357Z,97855.81
2024-02-11T01:20:59.841Z,97853.78
2024-02-11T01:24:01.322Z,97854.56
2024-02-11T01:27:02.788Z,97853.63
2024-02-11T01:30:08.286Z,97856.84
2024-02-11T01:33:10.420Z,97854.13
2024-02-11T01:36:13.682Z,97865.38
2024-02-11T01:39:18.116Z,97868.56
2024-02-11T01:42:19.644Z,97869.28
2024-02-11T01:45:21.081Z,97872.91
2024-02-11T01:48:23.356Z,97879.09
2024-02-11T01:51:24.985Z,97876.22
2024-02-11T01:54:29.768Z,97876.22
2024-02-11T01:57:32.038Z,97881.41
2024-02-11T02:00:35.188Z,97884.88
2024-02-11T02:03:36.992Z,97883.19
2024-02-11T02:06:38.576Z,97886.75
2024-02-11T02:09:40.156Z,97891.31
2024-02-11T02:12:41.937Z,97894.84
2024-02-11T02:15:43.482Z,97903.19
2024-02-11T02:18:51.012Z,97900.88
2024-02-11T02:21:52.801Z,97903.56
2024-02-11T02:24:54.279Z,97916.44
2024-02-11T02:27:55.749Z,97917.38
2024-02-11T02:30:57.323Z,97924.25
2024-02-11T02:33:58.796Z,97930.88
2024-02-11T02:37:00.266Z,97926.38
2024-02-11T02:40:01.769Z,97930.63
2024-02-11T02:43:08.424Z,97935.47
2024-02-11T02:46:11.757Z,97941.03
2024-02-11T02:49:13.426Z,97961.41
2024-02-11T02:52:15.280Z,97962.69
2024-02-11T02:55:19.077Z,97963.84
2024-02-11T02:58:20.616Z,97964.78
2024-02-11T03:01:27.451Z,97951.63
2024-02-11T03:04:29.135Z,97960.94
2024-02-11T03:07:30.588Z,97964.94
2024-02-11T03:10:32.070Z,97977.22
2024-02-11T03:13:33.563Z,97971.84
2024-02-11T03:16:35.067Z,97980.66
2024-02-11T03:19:36.545Z,97991.66
2024-02-11T03:22:38.341Z,97997.97
2024-02-11T03:25:41.901Z,98002.56
2024-02-11T03:28:43.444Z,98000.88
2024-02-11T03:31:44.948Z,98010.19
2024-02-11T03:34:46.486Z,98018.53
2024-02-11T03:37:48.530Z,98032.16
2024-02-11T03:40:53.413Z,98027.84
2024-02-11T03:43:55.022Z,98034.97
2024-02-11T03:46:56.563Z,98040.03
2024-02-11T03:49:58.063Z,98040.78
2024-02-11T03:53:02.870Z,98058.22
2024-02-11T03:56:07.633Z,98054.50
2024-02-11T03:59:11.692Z,98063.59
2024-02-11T04:02:13.718Z,98056.19
2024-02-11T04:05:17.476Z,98068.94
2024-02-11T04:08:19.521Z,98076.16
2024-02-11T04:11:21.317Z,98072.94
2024-02-11T04:14:22.906Z,98082.50
2024-02-11T04:17:24.385Z,98084.19
2024-02-11T04:20:28.004Z,98081.34
2024-02-11T04:23:29.612Z,98092.28
2024-02-11T04:26:31.422Z,98090.84
2024-02-11T04:29:33.091Z,98101.50
2024-02-11T04:32:34.573Z,98101.13
2024-02-11T04:35:36.227Z,98097.66
2024-02-11T04:38:37.975Z,98094.56
2024-02-11T04:41:40.296Z,98101.50
2024-02-11T04:44:42.050Z,98108.81
2024-02-11T04:47:47.862Z,98101.72
2024-02-11T04:50:49.416Z,98101.72
2024-02-11T04:53:52.122Z,98106.19
2024-02-11T04:56:54.600Z,98103.56
2024-02-11T04:59:56.861Z,98107.59
2024-02-11T05:03:04.259Z,98107.03
2024-02-11T05:06:08.755Z,98116.13
2024-02-11T05:09:10.357Z,98110.38
2024-02-11T05:12:12.347Z,98103.94
2024-02-11T05:15:15.728Z,98114.63
2024-02-11T05:18:17.656Z,98118.19
2024-02-11T05:21:20.850Z,98122.66
2024-02-11T05:24:22.324Z,98127.91
2024-02-11T05:27:24.158Z,98121.81
2024-02-11T05:30:31.128Z,98123.78
2024-02-11T05:33:32.932Z,98126.06
2024-02-11T05:36:41.745Z,98133.91
2024-02-11T05:39:44.117Z,98139.31
2024-02-11T05:42:45.551Z,98142.06
2024-02-11T05:45:47.064Z,98133.91
2024-02-11T05:48:48.567Z,98141.03
2024-02-11T05:51:50.059Z,98143.06
2024-02-11T05:54:51.498Z,98149.09
2024-02-11T05:57:54.126Z,98153.56
2024-02-11T06:00:55.621Z,98167.34
2024-02-11T06:03:57.120Z,98166.59
2024-02-11T06:06:59.690Z,98169.50
2024-02-11T06:10:01.159Z,98171.16
2024-02-11T06:13:06.980Z,98164.25
2024-02-11T06:16:08.512Z,98167.97
2024-02-11T06:19:10.010Z,98182.69
2024-02-11T06:22:11.490Z,98177.94
2024-02-11T06:25:13.807Z,98180.34
2024-02-11T06:28:15.281Z,98187.28
2024-02-11T06:31:16.758Z,98190.06
2024-02-11T06:34:18.612Z,98199.22
2024-02-11T06:37:20.891Z,98206.75
2024-02-11T06:40:29.072Z,98209.09
2024-02-11T06:43:33.789Z,98209.28
2024-02-11T06:46:35.585Z,98221.97
2024-02-11T06:49:39.174Z,98222.66
2024-02-11T06:52:40.904Z,98229.41
2024-02-11T06:55:42.482Z,98231.63
2024-02-11T06:58:43.998Z,98225.19
2024-02-11T07:01:46.211Z,98227.91
2024-02-11T07:04:48.147Z,98226.03
2024-02-11T07:07:50.063Z,98228.25
2024-02-11T07:10:51.810Z,98235.00
2024-02-11T07:13:54.094Z,98243.81
2024-02-11T07:16:55.689Z,98242.88
2024-02-11T07:19:57.383Z,98235.09
2024-02-11T07:22:58.915Z,98248.31
2024-02-11T07:26:00.399Z,98249.06
2024-02-11T07:29:02.031Z,98258.69
2024-02-11T07:32:04.049Z,98249.91
2024-02-11T07:35:08.441Z,98261.22
2024-02-11T07:38:11.148Z,98264.91
2024-02-11T07:41:12.818Z,98270.22
2024-02-11T07:44:14.458Z,98275.28
2024-02-11T07:47:16.751Z,98270.03
2024-02-11T07:50:18.688Z,98283.84
2024-02-11T07:53:20.759Z,98289.81
2024-02-11T07:56:22.294Z,98286.97
2024-02-11T07:59:23.769Z,98292.03
2024-02-11T08:02:25.784Z,98295.22
2024-02-11T08:05:27.425Z,98291.69
2024-02-11T08:08:29.227Z,98296.75
2024-02-11T08:11:31.538Z,98303.25
2024-02-11T08:14:33.314Z,98300.09
2024-02-11T08:17:34.912Z,98297.75
2024-02-11T08:20:36.473Z,98309.94
2024-02-11T08:23:39.596Z,98306.38
2024-02-11T08:26:41.136Z,98310.94
2024-02-11T08:29:47.293Z,98314.16
2024-02-11T08:32:49.106Z,98313.91
2024-02-11T08:35:52.316Z,98308.16
2024-02-11T08:38:53.959Z,98313.91
2024-02-11T08:41:56.040Z,98307.25
2024-02-11T08:44:57.478Z,98326.25
2024-02-11T08:47:59.251Z,98316.34
2024-02-11T08:51:01.534Z,98324.47
2024-02-11T08:54:03.319Z,98329.00
2024-02-11T08:57:05.193Z,98321.44
2024-02-11T09:00:17.664Z,98324.47
2024-02-11T09:03:19.176Z,98325.06
2024-02-11T09:06:20.739Z,98330.88
2024-02-11T09:09:30.693Z,98332.59
2024-02-11T09:12:32.677Z,98336.91
2024-02-11T09:15:35.565Z,98342.72
2024-02-11T09:18:37.342Z,98335.84
2024-02-11T09:21:38.856Z,98342.25
2024-02-11T09:24:40.267Z,98336.44
2024-02-11T09:27:41.729Z,98334.00
2024-02-11T09:30:43.629Z,98332.53
2024-02-11T09:33:45.533Z,98334.53
2024-02-11T09:36:47.105Z,98346.41
2024-02-11T09:39:48.530Z,98351.78
2024-02-11T09:42:51.025Z,98347.84
2024-02-11T09:45:53.620Z,98345.31
2024-02-11T09:48:58.400Z,98351.88
2024-02-11T09:52:04.870Z,98345.59
2024-02-11T09:55:08.823Z,98352.75
2024-02-11T09:58:10.448Z,98359.78
2024-02-11T10:01:13.483Z,98356.78
2024-02-11T10:04:18.860Z,98344.47
2024-02-11T10:07:26.574Z,98353.00
2024-02-11T10:10:28.864Z,98358.47
2024-02-11T10:13:31.238Z,98360.31
2024-02-11T10:16:35.966Z,98357.06
2024-02-11T10:19:37.445Z,98365.22
2024-02-11T10:22:39.227Z,98366.91
2024-02-11T10:25:40.854Z,98367.63
2024-02-11T10:28:42.371Z,98382.94
2024-02-11T10:31:44.157Z,98379.97
2024-02-11T10:34:47.070Z,98367.09
2024-02-11T10:37:52.562Z,98372.09
2024-02-11T10:40:56.805Z,98373.06
2024-02-11T10:43:58.789Z,98380.25
2024-02-11T10:47:00.599Z,98373.81
2024-02-11T10:50:02.136Z,98372.47
2024-02-11T10:53:04.685Z,98373.59
2024-02-11T10:56:10.867Z,98368.47
2024-02-11T10:59:28.827Z,98369.31
2024-02-11T11:02:35.129Z,98369.31
2024-02-11T11:05:41.073Z,98378.31
2024-02-11T11:08:44.305Z,98377.31
2024-02-11T11:11:45.825Z,98390.75
2024-02-11T11:14:49.175Z,98386.34
2024-02-11T11:17:50.696Z,98389.31
2024-02-11T11:20:54.049Z,98387.72
2024-02-11T11:24:00.554Z,98384.06
2024-02-11T11:27:04.011Z,98383.03
2024-02-11T11:30:11.983Z,98384.34
2024-02-11T11:33:14.224Z,98381.53
2024-02-11T11:36:24.486Z,98379.91
2024-02-11T11:39:28.507Z,98382.16
2024-02-11T11:42:31.120Z,98389.78
2024-02-11T11:45:34.055Z,98386.44
2024-02-11T11:48:37.807Z,98389.88
2024-02-11T11:51:40.072Z,98388.47
2024-02-11T11:54:41.489Z,98389.91
2024-02-11T11:57:43.121Z,98390.94
2024-02-11T12:01:04.226Z,98378.91
2024-02-11T12:04:06.877Z,98382.56
2024-02-11T12:07:10.627Z,98379.72
2024-02-11T12:10:14.406Z,98364.94
2024-02-11T12:13:18.371Z,98372.13
2024-02-11T12:16:21.344Z,98375.69
2024-02-11T12:19:24.851Z,98371.91
2024-02-11T12:22:26.716Z,98377.00
2024-02-11T12:25:29.078Z,98375.28
2024-02-11T12:28:32.262Z,98377.19
2024-02-11T12:31:34.527Z,98379.22
2024-02-11T12:34:36.076Z,98378.66
2024-02-11T12:37:37.535Z,98383.16
2024-02-11T12:40:39.055Z,98368.28
2024-02-11T12:43:42.786Z,98372.63
2024-02-11T12:46:45.226Z,98373.78
2024-02-11T12:49:46.789Z,98377.09
2024-02-11T12:52:49.705Z,98371.38
2024-02-11T12:55:51.308Z,98373.63
2024-02-11T12:58:53.052Z,98381.91
2024-02-11T13:01:54.668Z,98375.94
2024-02-11T13:04:56.190Z,98375.78
2024-02-11T13:07:57.809Z,98376.97
2024-02-11T13:11:00.963Z,98375.25
2024-02-11T13:14:02.571Z,98371.28
2024-02-11T13:17:04.229Z,98375.00
2024-02-11T13:20:11.563Z,98369.72
2024-02-11T13:23:13.685Z,98375.34
2024-02-11T13:26:15.145Z,98369.19
2024-02-11T13:29:17.490Z,98367.28
2024-02-11T13:32:20.204Z,98371.88
2024-02-11T13:35:22.904Z,98380.00
2024-02-11T13:38:26.571Z,98376.94
2024-02-11T13:41:28.314Z,98380.81
2024-02-11T13:44:30.467Z,98376.16
2024-02-11T13:47:32.409Z,98380.97
2024-02-11T13:50:33.974Z,98377.66
2024-02-11T13:53:39.098Z,98385.03
2024-02-11T13:56:40.655Z,98382.41
2024-02-11T13:59:42.306Z,98388.22
2024-02-11T14:02:44.372Z,98384.34
2024-02-11T14:05:47.177Z,98388.56
2024-02-11T14:08:48.746Z,98396.25
2024-02-11T14:11:50.237Z,98389.88
2024-02-11T14:14:52.758Z,98387.56
2024-02-11T14:17:54.330Z,98385.72
2024-02-11T14:20:57.000Z,98374.75
2024-02-11T14:24:00.191Z,98387.41
2024-02-11T14:27:02.246Z,98383.41
2024-02-11T14:30:04.904Z,98388.66
2024-02-11T14:33:07.901Z,98388.84
2024-02-11T14:36:09.605Z,98392.44
2024-02-11T14:39:11.138Z,98386.13
2024-02-11T14:42:13.184Z,98394.22
2024-02-11T14:45:15.789Z,98388.44
2024-02-11T14:48:17.984Z,98389.59
2024-02-11T14:51:20.540Z,98379.28
2024-02-11T14:54:21.959Z,98384.97
2024-02-11T14:57:23.683Z,98375.63
2024-02-11T15:00:25.943Z,98390.28
2024-02-11T15:03:30.415Z,98394.16
2024-02-11T15:06:32.932Z,98396.03
2024-02-11T15:09:38.541Z,98404.22
2024-02-11T15:12:40.938Z,98412.31
2024-02-11T15:15:43.158Z,98412.75
2024-02-11T15:18:44.628Z,98413.78
2024-02-11T15:21:46.052Z,98419.41
2024-02-11T15:24:47.801Z,98420.34
2024-02-11T15:27:49.394Z,98425.63
2024-02-11T15:30:51.147Z,98433.38
2024-02-11T15:33:52.806Z,98429.09
2024-02-11T15:36:54.718Z,98441.47
2024-02-11T15:39:56.161Z,98439.03
2024-02-11T15:42:57.616Z,98449.59
2024-02-11T15:45:59.239Z,98444.59
2024-02-11T15:49:00.803Z,98451.56
2024-02-11T15:52:02.297Z,98448.31
2024-02-11T15:55:05.857Z,98452.50
2024-02-11T15:58:07.393Z,98451.38
2024-02-11T16:01:08.959Z,98457.78
2024-02-11T16:04:11.312Z,98470.34
2024-02-11T16:07:13.388Z,98470.25
2024-02-11T16:10:15.631Z,98475.78
2024-02-11T16:13:17.036Z,98480.66
2024-02-11T16:16:18.539Z,98479.00
2024-02-11T16:19:19.990Z,98479.13
2024-02-11T16:22:21.480Z,98481.03
2024-02-11T16:25:23.592Z,98485.66
2024-02-11T16:28:25.075Z,98495.34
2024-02-11T16:31:26.599Z,98490.06
2024-02-11T16:34:28.097Z,98497.25
2024-02-11T16:37:29.625Z,98505.63
2024-02-11T16:40:31.689Z,98504.78
2024-02-11T16:43:33.171Z,98505.00
2024-02-11T16:46:35.211Z,98515.53
2024-02-11T16:49:36.698Z,98513.94
2024-02-11T16:52:41.507Z,98516.78
2024-02-11T16:55:43.094Z,98521.84
2024-02-11T16:58:44.846Z,98526.81
2024-02-11T17:01:46.286Z,98524.19
2024-02-11T17:04:49.933Z,98530.38
2024-02-11T17:07:51.509Z,98542.75
2024-02-11T17:10:53.050Z,98534.72
2024-02-11T17:13:57.241Z,98545.09
2024-02-11T17:16:59.362Z,98543.97
2024-02-11T17:20:01.487Z,98542.47
2024-02-11T17:23:03.094Z,98552.06
2024-02-11T17:26:06.415Z,98551.88
2024-02-11T17:29:11.557Z,98556.47
2024-02-11T17:32:21.745Z,98560.25
2024-02-11T17:35:32.331Z,98569.56
2024-02-11T17:38:34.466Z,98568.72
2024-02-11T17:41:41.143Z,98572.97
2024-02-11T17:44:44.707Z,98584.81
2024-02-11T17:47:46.360Z,98588.38
2024-02-11T17:50:48.871Z,98587.38
2024-02-11T17:53:51.250Z,98591.28
2024-02-11T17:56:53.118Z,98604.16
2024-02-11T17:59:55.905Z,98600.41
2024-02-11T18:02:57.333Z,98600.63
2024-02-11T18:06:01.294Z,98607.75
2024-02-11T18:09:03.548Z,98610.78
2024-02-11T18:12:06.581Z,98608.31
2024-02-11T18:15:10.530Z,98615.38
2024-02-11T18:18:12.068Z,98615.38
2024-02-11T18:21:13.546Z,98628.66
2024-02-11T18:24:14.969Z,98623.41
2024-02-11T18:27:16.886Z,98629.50
2024-02-11T18:30:20.747Z,98634.47
2024-02-11T18:33:22.363Z,98638.41
2024-02-11T18:36:23.896Z,98650.19
2024-02-11T18:39:25.349Z,98653.28
2024-02-11T18:42:26.818Z,98659.84
2024-02-11T18:45:28.362Z,98658.91
2024-02-11T18:48:30.334Z,98666.06
2024-02-11T18:51:37.080Z,98658.28
2024-02-11T18:54:38.771Z,98667.28
2024-02-11T18:57:41.690Z,98673.69
2024-02-11T19:00:43.286Z,98676.31
2024-02-11T19:03:44.912Z,98678.19
2024-02-11T19:06:49.950Z,98680.03
2024-02-11T19:09:52.802Z,98677.88
2024-02-11T19:12:54.944Z,98691.59
2024-02-11T19:15:56.915Z,98693.91
2024-02-11T19:19:00.033Z,98698.69
2024-02-11T19:22:08.086Z,98698.78
2024-02-11T19:25:15.521Z,98692.16
2024-02-11T19:28:18.340Z,98686.13
2024-02-11T19:31:19.926Z,98689.03
2024-02-11T19:34:21.461Z,98698.97
2024-02-11T19:37:22.900Z,98704.22
2024-02-11T19:40:26.348Z,98699.81
2024-02-11T19:43:28.592Z,98706.56
2024-02-11T19:46:30.304Z,98703.88
2024-02-11T19:49:31.787Z,98702.75
2024-02-11T19:52:34.111Z,98698.94
2024-02-11T19:55:35.784Z,98707.94
2024-02-11T19:58:40.780Z,98705.66
2024-02-11T20:01:42.634Z,98708.19
2024-02-11T20:04:44.821Z,98716.75
2024-02-11T20:07:46.533Z,98711.41
2024-02-11T20:10:48.790Z,98711.16
2024-02-11T20:13:50.858Z,98709.09
2024-02-11T20:16:52.425Z,98707.91
2024-02-11T20:19:54.162Z,98718.28
2024-02-11T20:22:55.614Z,98718.78
2024-02-11T20:25:57.509Z,98728.59
2024-02-11T20:28:59.226Z,98725.13
2024-02-11T20:32:00.788Z,98735.75
2024-02-11T20:35:03.068Z,98727.38
2024-02-11T20:38:04.724Z,98727.53
2024-02-11T20:41:08.020Z,98728.81
2024-02-11T20:44:11.166Z,98730.16
2024-02-11T20:47:12.772Z,98737.19
2024-02-11T20:50:14.672Z,98744.28
2024-02-11T20:53:16.223Z,98748.75
2024-02-11T20:56:18.145Z,98744.63
2024-02-11T20:59:19.757Z,98741.03
2024-02-11T21:02:21.974Z,98740.00
2024-02-11T21:05:23.679Z,98738.25
2024-02-11T21:08:25.314Z,98747.50
2024-02-11T21:11:27.378Z,98747.97
2024-02-11T21:14:30.434Z,98740.91
2024-02-11T21:17:32.131Z,98742.31
2024-02-11T21:20:33.956Z,98747.50
2024-02-11T21:23:38.442Z,98757.16
2024-02-11T21:26:40.021Z,98764.13
2024-02-11T21:29:42.569Z,98760.53
2024-02-11T21:32:44.252Z,98756.13
2024-02-11T21:35:45.960Z,98750.34
2024-02-11T21:38:48.151Z,98757.16
2024-02-11T21:41:49.775Z,98761.38
2024-02-11T21:44:51.253Z,98769.88
2024-02-11T21:47:53.341Z,98758.25
2024-02-11T21:50:59.209Z,98767.19
2024-02-11T21:54:00.657Z,98772.44
2024-02-11T21:57:02.695Z,98783.44
2024-02-11T22:00:14.527Z,98784.81
2024-02-11T22:03:16.124Z,98778.97
2024-02-11T22:06:19.915Z,98776.53
2024-02-11T22:09:21.469Z,98780.09
2024-02-11T22:12:22.897Z,98781.34
2024-02-11T22:15:24.556Z,98777.13
2024-02-11T22:18:26.695Z,98776.00
2024-02-11T22:21:28.305Z,98780.56
2024-02-11T22:24:29.742Z,98774.91
2024-02-11T22:27:31.231Z,98788.03
2024-02-11T22:30:32.694Z,98787.13
2024-02-11T22:33:34.368Z,98795.75
2024-02-11T22:36:36.639Z,98799.16
2024-02-11T22:39:39.080Z,98790.41
2024-02-11T22:42:41.795Z,98801.94
2024-02-11T22:45:43.424Z,98791.28
2024-02-11T22:48:45.085Z,98803.81
2024-02-11T22:51:47.158Z,98800.25
2024-02-11T22:54:48.624Z,98802.03
2024-02-11T22:57:50.075Z,98800.75
2024-02-11T23:00:51.512Z,98801.59
2024-02-11T23:03:53.323Z,98808.91
2024-02-11T23:06:56.636Z,98814.16
2024-02-11T23:09:58.101Z,98807.56
2024-02-11T23:13:02.613Z,98819.47
2024-02-11T23:16:05.095Z,98815.59
2024-02-11T23:19:08.622Z,98826.78
2024-02-11T23:22:11.789Z,98827.88
2024-02-11T23:25:13.499Z,98830.44
2024-02-11T23:28:19.876Z,98824.34
2024-02-11T23:31:21.465Z,98825.59
2024-02-11T23:34:24.133Z,98844.84
2024-02-11T23:37:25.942Z,98844.28
2024-02-11T23:40:27.386Z,98843.75
2024-02-11T23:43:32.936Z,98844.53
2024-02-11T23:46:35.754Z,98846.22
2024-02-11T23:49:37.337Z,98849.97
2024-02-11T23:52:38.783Z,98840.44
2024-02-11T23:55:40.532Z,98846.38
2024-02-11T23:58:42.020Z,98851.03
